sensor_id;sensor_type;location;lat;lon;timestamp;temperature;humidity
2022;DHT22;1015;49.756;6.994;2022-11-06T00:00:54;6.10;99.90
2022;DHT22;1015;49.756;6.994;2022-11-06T00:03:21;6.20;99.90
2022;DHT22;1015;49.756;6.994;2022-11-06T00:05:48;6.20;99.90
2022;DHT22;1015;49.756;6.994;2022-11-06T00:08:35;6.10;99.90
2022;DHT22;1015;49.756;6.994;2022-11-06T00:11:08;6.10;99.90
2022;DHT22;1015;49.756;6.994;2022-11-06T00:13:36;6.10;99.90
2022;DHT22;1015;49.756;6.994;2022-11-06T00:16:04;6.10;99.90
2022;DHT22;1015;49.756;6.994;2022-11-06T00:18:32;6.10;99.90
2022;DHT22;1015;49.756;6.994;2022-11-06T00:21:05;6.10;99.90
2022;DHT22;1015;49.756;6.994;2022-11-06T00:23:34;6.10;99.90
2022;DHT22;1015;49.756;6.994;2022-11-06T00:26:05;6.10;99.90
2022;DHT22;1015;49.756;6.994;2022-11-06T00:28:32;6.00;99.90
2022;DHT22;1015;49.756;6.994;2022-11-06T00:31:00;6.00;99.90
2022;DHT22;1015;49.756;6.994;2022-11-06T00:33:27;6.00;99.90
2022;DHT22;1015;49.756;6.994;2022-11-06T00:35:54;5.90;99.90
2022;DHT22;1015;49.756;6.994;2022-11-06T00:38:21;5.90;99.90
2022;DHT22;1015;49.756;6.994;2022-11-06T00:40:50;5.90;99.90
2022;DHT22;1015;49.756;6.994;2022-11-06T00:43:17;6.00;99.90
2022;DHT22;1015;49.756;6.994;2022-11-06T00:45:44;6.00;99.90
2022;DHT22;1015;49.756;6.994;2022-11-06T00:48:11;6.00;99.90
2022;DHT22;1015;49.756;6.994;2022-11-06T00:50:38;6.00;99.90
2022;DHT22;1015;49.756;6.994;2022-11-06T00:53:05;6.00;99.90
2022;DHT22;1015;49.756;6.994;2022-11-06T00:55:32;6.10;99.90
2022;DHT22;1015;49.756;6.994;2022-11-06T00:58:00;6.10;99.90
2022;DHT22;1015;49.756;6.994;2022-11-06T01:00:27;6.10;99.90
2022;DHT22;1015;49.756;6.994;2022-11-06T01:02:55;6.10;99.90
2022;DHT22;1015;49.756;6.994;2022-11-06T01:05:22;6.10;99.90
2022;DHT22;1015;49.756;6.994;2022-11-06T01:07:49;6.10;99.90
2022;DHT22;1015;49.756;6.994;2022-11-06T01:10:16;6.10;99.90
2022;DHT22;1015;49.756;6.994;2022-11-06T01:12:43;6.10;99.90
2022;DHT22;1015;49.756;6.994;2022-11-06T01:15:12;6.10;99.90
2022;DHT22;1015;49.756;6.994;2022-11-06T01:17:38;6.10;99.90
2022;DHT22;1015;49.756;6.994;2022-11-06T01:20:06;6.10;99.90
2022;DHT22;1015;49.756;6.994;2022-11-06T01:22:34;6.10;99.90
2022;DHT22;1015;49.756;6.994;2022-11-06T01:25:01;6.10;99.90
2022;DHT22;1015;49.756;6.994;2022-11-06T01:27:28;6.00;99.90
2022;DHT22;1015;49.756;6.994;2022-11-06T01:29:55;6.00;99.90
2022;DHT22;1015;49.756;6.994;2022-11-06T01:32:24;6.00;99.90
2022;DHT22;1015;49.756;6.994;2022-11-06T01:34:50;6.00;99.90
2022;DHT22;1015;49.756;6.994;2022-11-06T01:37:17;6.00;99.90
2022;DHT22;1015;49.756;6.994;2022-11-06T01:39:44;6.00;99.90
2022;DHT22;1015;49.756;6.994;2022-11-06T01:42:13;5.90;99.90
2022;DHT22;1015;49.756;6.994;2022-11-06T01:45:25;5.90;99.90
2022;DHT22;1015;49.756;6.994;2022-11-06T01:47:54;5.90;99.90
2022;DHT22;1015;49.756;6.994;2022-11-06T01:50:21;5.80;99.90
2022;DHT22;1015;49.756;6.994;2022-11-06T01:52:49;5.80;99.90
2022;DHT22;1015;49.756;6.994;2022-11-06T01:55:20;5.80;99.90
2022;DHT22;1015;49.756;6.994;2022-11-06T01:57:48;5.70;99.90
2022;DHT22;1015;49.756;6.994;2022-11-06T02:00:15;5.70;99.90
2022;DHT22;1015;49.756;6.994;2022-11-06T02:02:44;5.70;99.90
2022;DHT22;1015;49.756;6.994;2022-11-06T02:05:13;5.80;99.90
2022;DHT22;1015;49.756;6.994;2022-11-06T02:07:41;5.70;99.90
2022;DHT22;1015;49.756;6.994;2022-11-06T02:10:09;5.80;99.90
2022;DHT22;1015;49.756;6.994;2022-11-06T02:12:51;5.80;99.90
2022;DHT22;1015;49.756;6.994;2022-11-06T02:15:25;5.70;99.90
2022;DHT22;1015;49.756;6.994;2022-11-06T02:18:11;5.70;99.90
2022;DHT22;1015;49.756;6.994;2022-11-06T02:20:49;5.80;99.90
2022;DHT22;1015;49.756;6.994;2022-11-06T02:23:40;5.80;99.90
2022;DHT22;1015;49.756;6.994;2022-11-06T02:26:22;5.80;99.90
2022;DHT22;1015;49.756;6.994;2022-11-06T02:28:56;5.70;99.90
2022;DHT22;1015;49.756;6.994;2022-11-06T02:31:28;5.80;99.90
2022;DHT22;1015;49.756;6.994;2022-11-06T02:34:00;5.70;99.90
2022;DHT22;1015;49.756;6.994;2022-11-06T02:36:31;5.70;99.90
2022;DHT22;1015;49.756;6.994;2022-11-06T02:39:02;5.80;99.90
2022;DHT22;1015;49.756;6.994;2022-11-06T02:41:35;5.80;99.90
2022;DHT22;1015;49.756;6.994;2022-11-06T02:44:06;5.80;99.90
2022;DHT22;1015;49.756;6.994;2022-11-06T02:46:37;5.80;99.90
2022;DHT22;1015;49.756;6.994;2022-11-06T02:49:07;5.80;99.90
2022;DHT22;1015;49.756;6.994;2022-11-06T02:51:38;5.80;99.90
2022;DHT22;1015;49.756;6.994;2022-11-06T02:54:06;5.80;99.90
2022;DHT22;1015;49.756;6.994;2022-11-06T02:56:38;5.80;99.90
2022;DHT22;1015;49.756;6.994;2022-11-06T02:59:12;5.70;99.90
2022;DHT22;1015;49.756;6.994;2022-11-06T03:01:45;5.70;99.90
2022;DHT22;1015;49.756;6.994;2022-11-06T03:04:17;5.70;99.90
2022;DHT22;1015;49.756;6.994;2022-11-06T03:06:51;5.60;99.90
2022;DHT22;1015;49.756;6.994;2022-11-06T03:09:21;5.60;99.90
2022;DHT22;1015;49.756;6.994;2022-11-06T03:11:55;5.60;99.90
2022;DHT22;1015;49.756;6.994;2022-11-06T03:14:29;5.60;99.90
2022;DHT22;1015;49.756;6.994;2022-11-06T03:16:59;5.60;99.90
2022;DHT22;1015;49.756;6.994;2022-11-06T03:19:29;5.50;99.90
2022;DHT22;1015;49.756;6.994;2022-11-06T03:22:03;5.50;99.90
2022;DHT22;1015;49.756;6.994;2022-11-06T03:24:36;5.50;99.90
2022;DHT22;1015;49.756;6.994;2022-11-06T03:27:11;5.50;99.90
2022;DHT22;1015;49.756;6.994;2022-11-06T03:29:45;5.50;99.90
2022;DHT22;1015;49.756;6.994;2022-11-06T03:32:16;5.50;99.90
2022;DHT22;1015;49.756;6.994;2022-11-06T03:34:47;5.40;99.90
2022;DHT22;1015;49.756;6.994;2022-11-06T03:37:21;5.40;99.90
2022;DHT22;1015;49.756;6.994;2022-11-06T03:39:53;5.40;99.90
2022;DHT22;1015;49.756;6.994;2022-11-06T03:42:24;5.40;99.90
2022;DHT22;1015;49.756;6.994;2022-11-06T03:44:55;5.40;99.90
2022;DHT22;1015;49.756;6.994;2022-11-06T03:47:25;5.40;99.90
2022;DHT22;1015;49.756;6.994;2022-11-06T03:49:58;5.30;99.90
2022;DHT22;1015;49.756;6.994;2022-11-06T03:52:30;5.30;99.90
2022;DHT22;1015;49.756;6.994;2022-11-06T03:55:00;5.30;99.90
2022;DHT22;1015;49.756;6.994;2022-11-06T03:57:34;5.30;99.90
2022;DHT22;1015;49.756;6.994;2022-11-06T04:00:06;5.30;99.90
2022;DHT22;1015;49.756;6.994;2022-11-06T04:02:36;5.40;99.90
2022;DHT22;1015;49.756;6.994;2022-11-06T04:05:10;5.30;99.90
2022;DHT22;1015;49.756;6.994;2022-11-06T04:07:42;5.30;99.90
2022;DHT22;1015;49.756;6.994;2022-11-06T04:10:31;5.30;99.90
2022;DHT22;1015;49.756;6.994;2022-11-06T04:13:18;5.20;99.90
2022;DHT22;1015;49.756;6.994;2022-11-06T04:16:07;5.10;99.90
2022;DHT22;1015;49.756;6.994;2022-11-06T04:18:34;5.00;99.90
2022;DHT22;1015;49.756;6.994;2022-11-06T04:21:09;4.90;99.90
2022;DHT22;1015;49.756;6.994;2022-11-06T04:24:03;4.80;99.90
2022;DHT22;1015;49.756;6.994;2022-11-06T04:29:57;4.70;99.90
2022;DHT22;1015;49.756;6.994;2022-11-06T04:32:36;4.60;99.90
2022;DHT22;1015;49.756;6.994;2022-11-06T04:35:12;4.60;99.90
2022;DHT22;1015;49.756;6.994;2022-11-06T04:37:46;4.50;99.90
2022;DHT22;1015;49.756;6.994;2022-11-06T04:40:21;4.40;99.90
2022;DHT22;1015;49.756;6.994;2022-11-06T04:42:54;4.30;99.90
2022;DHT22;1015;49.756;6.994;2022-11-06T04:45:24;4.30;99.90
2022;DHT22;1015;49.756;6.994;2022-11-06T04:47:54;4.30;99.90
2022;DHT22;1015;49.756;6.994;2022-11-06T04:50:22;4.20;99.90
2022;DHT22;1015;49.756;6.994;2022-11-06T04:52:52;4.20;99.90
2022;DHT22;1015;49.756;6.994;2022-11-06T04:55:19;4.20;99.90
2022;DHT22;1015;49.756;6.994;2022-11-06T04:57:47;4.10;99.90
2022;DHT22;1015;49.756;6.994;2022-11-06T05:00:16;4.10;99.90
2022;DHT22;1015;49.756;6.994;2022-11-06T05:02:43;4.00;99.90
2022;DHT22;1015;49.756;6.994;2022-11-06T05:05:11;3.90;99.90
2022;DHT22;1015;49.756;6.994;2022-11-06T05:07:38;4.00;99.90
2022;DHT22;1015;49.756;6.994;2022-11-06T05:10:06;3.90;99.90
2022;DHT22;1015;49.756;6.994;2022-11-06T05:12:33;4.00;99.90
2022;DHT22;1015;49.756;6.994;2022-11-06T05:14:59;3.90;99.90
2022;DHT22;1015;49.756;6.994;2022-11-06T05:17:26;3.90;99.90
2022;DHT22;1015;49.756;6.994;2022-11-06T05:19:53;4.00;99.90
2022;DHT22;1015;49.756;6.994;2022-11-06T05:22:22;3.90;99.90
2022;DHT22;1015;49.756;6.994;2022-11-06T05:25:07;3.90;99.90
2022;DHT22;1015;49.756;6.994;2022-11-06T05:27:34;3.90;99.90
2022;DHT22;1015;49.756;6.994;2022-11-06T05:30:01;3.90;99.90
2022;DHT22;1015;49.756;6.994;2022-11-06T05:32:27;3.80;99.90
2022;DHT22;1015;49.756;6.994;2022-11-06T05:34:55;3.80;99.90
2022;DHT22;1015;49.756;6.994;2022-11-06T05:37:23;3.70;99.90
2022;DHT22;1015;49.756;6.994;2022-11-06T05:39:50;3.70;99.90
2022;DHT22;1015;49.756;6.994;2022-11-06T05:42:17;3.70;99.90
2022;DHT22;1015;49.756;6.994;2022-11-06T05:44:44;3.60;99.90
2022;DHT22;1015;49.756;6.994;2022-11-06T05:47:11;3.60;99.90
2022;DHT22;1015;49.756;6.994;2022-11-06T05:49:38;3.60;99.90
2022;DHT22;1015;49.756;6.994;2022-11-06T05:52:05;3.80;99.90
2022;DHT22;1015;49.756;6.994;2022-11-06T05:54:33;3.70;99.90
2022;DHT22;1015;49.756;6.994;2022-11-06T05:57:00;3.70;99.90
2022;DHT22;1015;49.756;6.994;2022-11-06T05:59:27;3.70;99.90
2022;DHT22;1015;49.756;6.994;2022-11-06T06:01:54;3.70;99.90
2022;DHT22;1015;49.756;6.994;2022-11-06T06:04:23;3.60;99.90
2022;DHT22;1015;49.756;6.994;2022-11-06T06:06:49;3.60;99.90
2022;DHT22;1015;49.756;6.994;2022-11-06T06:09:16;3.40;99.90
2022;DHT22;1015;49.756;6.994;2022-11-06T06:11:45;3.40;99.90
2022;DHT22;1015;49.756;6.994;2022-11-06T06:14:12;3.30;99.90
2022;DHT22;1015;49.756;6.994;2022-11-06T06:16:39;3.30;99.90
2022;DHT22;1015;49.756;6.994;2022-11-06T06:19:06;3.20;99.90
2022;DHT22;1015;49.756;6.994;2022-11-06T06:21:33;3.20;99.90
2022;DHT22;1015;49.756;6.994;2022-11-06T06:24:01;3.30;99.90
2022;DHT22;1015;49.756;6.994;2022-11-06T06:26:28;3.50;99.90
2022;DHT22;1015;49.756;6.994;2022-11-06T06:28:56;3.60;99.90
2022;DHT22;1015;49.756;6.994;2022-11-06T06:31:23;3.60;99.90
2022;DHT22;1015;49.756;6.994;2022-11-06T06:33:50;3.60;99.90
2022;DHT22;1015;49.756;6.994;2022-11-06T06:36:17;3.70;99.90
2022;DHT22;1015;49.756;6.994;2022-11-06T06:38:44;3.80;99.90
2022;DHT22;1015;49.756;6.994;2022-11-06T06:41:11;3.80;99.90
2022;DHT22;1015;49.756;6.994;2022-11-06T06:43:38;3.90;99.90
2022;DHT22;1015;49.756;6.994;2022-11-06T06:46:07;3.90;99.90
2022;DHT22;1015;49.756;6.994;2022-11-06T06:48:34;3.90;99.90
2022;DHT22;1015;49.756;6.994;2022-11-06T06:51:02;4.00;99.90
2022;DHT22;1015;49.756;6.994;2022-11-06T06:53:29;4.00;99.90
2022;DHT22;1015;49.756;6.994;2022-11-06T06:55:57;4.00;99.90
2022;DHT22;1015;49.756;6.994;2022-11-06T06:58:25;4.10;99.90
2022;DHT22;1015;49.756;6.994;2022-11-06T07:00:52;4.10;99.90
2022;DHT22;1015;49.756;6.994;2022-11-06T07:03:21;4.20;99.90
2022;DHT22;1015;49.756;6.994;2022-11-06T07:05:48;4.30;99.90
2022;DHT22;1015;49.756;6.994;2022-11-06T07:08:15;4.30;99.90
2022;DHT22;1015;49.756;6.994;2022-11-06T07:10:42;4.30;99.90
2022;DHT22;1015;49.756;6.994;2022-11-06T07:13:09;4.40;99.90
2022;DHT22;1015;49.756;6.994;2022-11-06T07:15:36;4.50;99.90
2022;DHT22;1015;49.756;6.994;2022-11-06T07:18:03;4.50;99.90
2022;DHT22;1015;49.756;6.994;2022-11-06T07:20:32;4.60;99.90
2022;DHT22;1015;49.756;6.994;2022-11-06T07:23:04;4.50;99.90
2022;DHT22;1015;49.756;6.994;2022-11-06T07:25:31;4.50;99.90
2022;DHT22;1015;49.756;6.994;2022-11-06T07:27:59;4.40;99.90
2022;DHT22;1015;49.756;6.994;2022-11-06T07:30:27;4.40;99.90
2022;DHT22;1015;49.756;6.994;2022-11-06T07:32:55;4.40;99.90
2022;DHT22;1015;49.756;6.994;2022-11-06T07:35:22;4.40;99.90
2022;DHT22;1015;49.756;6.994;2022-11-06T07:37:50;4.30;99.90
2022;DHT22;1015;49.756;6.994;2022-11-06T07:40:17;4.40;99.90
2022;DHT22;1015;49.756;6.994;2022-11-06T07:42:44;4.40;99.90
2022;DHT22;1015;49.756;6.994;2022-11-06T07:45:11;4.50;99.90
2022;DHT22;1015;49.756;6.994;2022-11-06T07:47:38;4.80;99.90
2022;DHT22;1015;49.756;6.994;2022-11-06T07:50:06;4.90;99.90
2022;DHT22;1015;49.756;6.994;2022-11-06T07:52:33;4.80;99.90
2022;DHT22;1015;49.756;6.994;2022-11-06T07:55:01;4.90;99.90
2022;DHT22;1015;49.756;6.994;2022-11-06T07:57:28;5.00;99.90
2022;DHT22;1015;49.756;6.994;2022-11-06T07:59:55;5.00;99.90
2022;DHT22;1015;49.756;6.994;2022-11-06T08:02:22;5.10;99.90
2022;DHT22;1015;49.756;6.994;2022-11-06T08:04:49;5.10;99.90
2022;DHT22;1015;49.756;6.994;2022-11-06T08:07:16;5.10;99.90
2022;DHT22;1015;49.756;6.994;2022-11-06T08:09:43;5.20;99.90
2022;DHT22;1015;49.756;6.994;2022-11-06T08:12:11;5.20;99.90
2022;DHT22;1015;49.756;6.994;2022-11-06T08:14:39;5.20;99.90
2022;DHT22;1015;49.756;6.994;2022-11-06T08:17:06;5.30;99.90
2022;DHT22;1015;49.756;6.994;2022-11-06T08:19:33;5.40;99.90
2022;DHT22;1015;49.756;6.994;2022-11-06T08:22:01;5.40;99.90
2022;DHT22;1015;49.756;6.994;2022-11-06T08:24:28;5.50;99.90
2022;DHT22;1015;49.756;6.994;2022-11-06T08:26:57;5.60;99.90
2022;DHT22;1015;49.756;6.994;2022-11-06T08:29:26;5.70;99.90
2022;DHT22;1015;49.756;6.994;2022-11-06T08:31:53;5.70;99.90
2022;DHT22;1015;49.756;6.994;2022-11-06T08:34:20;5.70;99.90
2022;DHT22;1015;49.756;6.994;2022-11-06T08:36:50;5.60;99.90
2022;DHT22;1015;49.756;6.994;2022-11-06T08:39:18;5.50;99.90
2022;DHT22;1015;49.756;6.994;2022-11-06T08:41:45;5.50;99.90
2022;DHT22;1015;49.756;6.994;2022-11-06T08:44:12;5.50;99.90
2022;DHT22;1015;49.756;6.994;2022-11-06T08:46:40;5.50;99.90
2022;DHT22;1015;49.756;6.994;2022-11-06T08:49:08;5.50;99.90
2022;DHT22;1015;49.756;6.994;2022-11-06T08:51:35;5.60;99.90
2022;DHT22;1015;49.756;6.994;2022-11-06T08:54:02;5.70;99.90
2022;DHT22;1015;49.756;6.994;2022-11-06T08:56:29;5.80;99.90
2022;DHT22;1015;49.756;6.994;2022-11-06T08:58:56;5.80;99.90
2022;DHT22;1015;49.756;6.994;2022-11-06T09:01:23;5.80;99.90
2022;DHT22;1015;49.756;6.994;2022-11-06T09:03:52;5.80;99.90
2022;DHT22;1015;49.756;6.994;2022-11-06T09:06:19;6.00;99.90
2022;DHT22;1015;49.756;6.994;2022-11-06T09:08:46;6.00;99.90
2022;DHT22;1015;49.756;6.994;2022-11-06T09:11:13;6.10;99.90
2022;DHT22;1015;49.756;6.994;2022-11-06T09:13:40;6.20;99.90
2022;DHT22;1015;49.756;6.994;2022-11-06T09:16:07;6.30;99.90
2022;DHT22;1015;49.756;6.994;2022-11-06T09:18:34;6.40;99.90
2022;DHT22;1015;49.756;6.994;2022-11-06T09:21:02;6.60;99.90
2022;DHT22;1015;49.756;6.994;2022-11-06T09:23:29;6.60;99.90
2022;DHT22;1015;49.756;6.994;2022-11-06T09:25:56;6.80;99.90
2022;DHT22;1015;49.756;6.994;2022-11-06T09:28:23;6.90;99.90
2022;DHT22;1015;49.756;6.994;2022-11-06T09:30:50;7.00;99.90
2022;DHT22;1015;49.756;6.994;2022-11-06T09:33:19;7.00;99.90
2022;DHT22;1015;49.756;6.994;2022-11-06T09:35:46;7.00;99.90
2022;DHT22;1015;49.756;6.994;2022-11-06T09:38:15;7.10;99.90
2022;DHT22;1015;49.756;6.994;2022-11-06T09:40:47;7.20;99.90
2022;DHT22;1015;49.756;6.994;2022-11-06T09:43:36;7.40;99.90
2022;DHT22;1015;49.756;6.994;2022-11-06T09:46:16;7.50;99.90
2022;DHT22;1015;49.756;6.994;2022-11-06T09:48:50;7.80;99.90
2022;DHT22;1015;49.756;6.994;2022-11-06T09:51:27;8.00;99.90
2022;DHT22;1015;49.756;6.994;2022-11-06T09:54:00;8.20;99.90
2022;DHT22;1015;49.756;6.994;2022-11-06T09:56:32;8.30;99.90
2022;DHT22;1015;49.756;6.994;2022-11-06T09:59:03;8.30;99.90
2022;DHT22;1015;49.756;6.994;2022-11-06T10:01:37;8.30;99.90
2022;DHT22;1015;49.756;6.994;2022-11-06T10:04:17;8.50;99.90
2022;DHT22;1015;49.756;6.994;2022-11-06T10:06:46;8.50;99.90
2022;DHT22;1015;49.756;6.994;2022-11-06T10:09:14;8.50;99.90
2022;DHT22;1015;49.756;6.994;2022-11-06T10:11:53;8.50;99.90
2022;DHT22;1015;49.756;6.994;2022-11-06T10:14:34;8.60;99.90
2022;DHT22;1015;49.756;6.994;2022-11-06T10:17:10;8.60;99.90
2022;DHT22;1015;49.756;6.994;2022-11-06T10:19:42;8.60;99.90
2022;DHT22;1015;49.756;6.994;2022-11-06T10:22:14;8.60;99.90
2022;DHT22;1015;49.756;6.994;2022-11-06T10:24:46;8.60;99.90
2022;DHT22;1015;49.756;6.994;2022-11-06T10:27:15;8.70;99.90
2022;DHT22;1015;49.756;6.994;2022-11-06T10:30:01;8.70;99.90
2022;DHT22;1015;49.756;6.994;2022-11-06T10:32:46;8.70;99.90
2022;DHT22;1015;49.756;6.994;2022-11-06T10:35:17;8.70;99.90
2022;DHT22;1015;49.756;6.994;2022-11-06T10:37:48;8.80;99.90
2022;DHT22;1015;49.756;6.994;2022-11-06T10:40:21;8.80;99.90
2022;DHT22;1015;49.756;6.994;2022-11-06T10:42:57;8.80;99.90
2022;DHT22;1015;49.756;6.994;2022-11-06T10:45:28;8.80;99.90
2022;DHT22;1015;49.756;6.994;2022-11-06T10:47:58;8.90;99.90
2022;DHT22;1015;49.756;6.994;2022-11-06T10:50:37;8.80;99.90
2022;DHT22;1015;49.756;6.994;2022-11-06T10:53:09;8.90;99.90
2022;DHT22;1015;49.756;6.994;2022-11-06T10:56:05;8.90;99.90
2022;DHT22;1015;49.756;6.994;2022-11-06T10:58:36;8.70;99.90
2022;DHT22;1015;49.756;6.994;2022-11-06T11:01:04;8.80;99.90
2022;DHT22;1015;49.756;6.994;2022-11-06T11:03:34;8.90;99.90
2022;DHT22;1015;49.756;6.994;2022-11-06T11:06:02;9.00;99.90
2022;DHT22;1015;49.756;6.994;2022-11-06T11:08:35;9.00;99.90
2022;DHT22;1015;49.756;6.994;2022-11-06T11:11:05;9.00;99.90
2022;DHT22;1015;49.756;6.994;2022-11-06T11:13:32;9.10;99.90
2022;DHT22;1015;49.756;6.994;2022-11-06T11:16:01;9.10;99.90
2022;DHT22;1015;49.756;6.994;2022-11-06T11:18:29;9.10;99.90
2022;DHT22;1015;49.756;6.994;2022-11-06T11:21:06;9.30;99.90
2022;DHT22;1015;49.756;6.994;2022-11-06T11:23:33;9.10;99.90
2022;DHT22;1015;49.756;6.994;2022-11-06T11:26:19;9.10;99.90
2022;DHT22;1015;49.756;6.994;2022-11-06T11:28:52;9.20;99.90
2022;DHT22;1015;49.756;6.994;2022-11-06T11:31:27;9.30;99.90
2022;DHT22;1015;49.756;6.994;2022-11-06T11:33:57;9.30;99.90
2022;DHT22;1015;49.756;6.994;2022-11-06T11:36:25;9.30;99.90
2022;DHT22;1015;49.756;6.994;2022-11-06T11:38:52;9.40;99.90
2022;DHT22;1015;49.756;6.994;2022-11-06T11:41:24;9.40;99.90
2022;DHT22;1015;49.756;6.994;2022-11-06T11:44:05;9.30;99.90
2022;DHT22;1015;49.756;6.994;2022-11-06T11:46:32;9.10;99.90
2022;DHT22;1015;49.756;6.994;2022-11-06T11:48:59;9.20;99.90
2022;DHT22;1015;49.756;6.994;2022-11-06T11:51:30;9.20;99.90
2022;DHT22;1015;49.756;6.994;2022-11-06T11:54:04;9.20;99.90
2022;DHT22;1015;49.756;6.994;2022-11-06T11:56:34;9.20;99.90
2022;DHT22;1015;49.756;6.994;2022-11-06T11:59:15;9.00;99.90
2022;DHT22;1015;49.756;6.994;2022-11-06T12:01:42;9.30;99.90
2022;DHT22;1015;49.756;6.994;2022-11-06T12:04:17;9.50;99.90
2022;DHT22;1015;49.756;6.994;2022-11-06T12:06:50;9.50;99.90
2022;DHT22;1015;49.756;6.994;2022-11-06T12:09:17;9.50;99.90
2022;DHT22;1015;49.756;6.994;2022-11-06T12:11:46;9.50;99.90
2022;DHT22;1015;49.756;6.994;2022-11-06T12:14:23;9.40;99.90
2022;DHT22;1015;49.756;6.994;2022-11-06T12:16:54;9.50;99.90
2022;DHT22;1015;49.756;6.994;2022-11-06T12:19:24;9.30;99.90
2022;DHT22;1015;49.756;6.994;2022-11-06T12:21:56;9.20;99.90
2022;DHT22;1015;49.756;6.994;2022-11-06T12:24:29;9.10;99.90
2022;DHT22;1015;49.756;6.994;2022-11-06T12:27:02;8.90;99.90
2022;DHT22;1015;49.756;6.994;2022-11-06T12:29:33;9.00;99.90
2022;DHT22;1015;49.756;6.994;2022-11-06T12:32:07;9.00;99.90
2022;DHT22;1015;49.756;6.994;2022-11-06T12:34:42;9.00;99.90
2022;DHT22;1015;49.756;6.994;2022-11-06T12:37:19;9.10;99.90
2022;DHT22;1015;49.756;6.994;2022-11-06T12:39:53;9.20;99.90
2022;DHT22;1015;49.756;6.994;2022-11-06T12:42:26;9.20;99.90
2022;DHT22;1015;49.756;6.994;2022-11-06T12:44:55;9.30;99.90
2022;DHT22;1015;49.756;6.994;2022-11-06T12:47:31;9.30;99.90
2022;DHT22;1015;49.756;6.994;2022-11-06T12:50:20;9.30;99.90
2022;DHT22;1015;49.756;6.994;2022-11-06T12:53:15;9.30;99.90
2022;DHT22;1015;49.756;6.994;2022-11-06T12:55:50;9.20;99.90
2022;DHT22;1015;49.756;6.994;2022-11-06T12:58:42;9.20;99.90
2022;DHT22;1015;49.756;6.994;2022-11-06T13:01:17;9.30;99.90
2022;DHT22;1015;49.756;6.994;2022-11-06T13:04:03;9.30;99.90
2022;DHT22;1015;49.756;6.994;2022-11-06T13:07:14;9.20;99.90
2022;DHT22;1015;49.756;6.994;2022-11-06T13:09:53;9.30;99.90
2022;DHT22;1015;49.756;6.994;2022-11-06T13:12:28;9.40;99.90
2022;DHT22;1015;49.756;6.994;2022-11-06T13:15:09;9.50;99.90
2022;DHT22;1015;49.756;6.994;2022-11-06T13:17:45;9.40;99.90
2022;DHT22;1015;49.756;6.994;2022-11-06T13:20:20;9.40;99.90
2022;DHT22;1015;49.756;6.994;2022-11-06T13:22:52;9.30;99.90
2022;DHT22;1015;49.756;6.994;2022-11-06T13:25:23;9.10;99.90
2022;DHT22;1015;49.756;6.994;2022-11-06T13:27:57;8.80;99.90
2022;DHT22;1015;49.756;6.994;2022-11-06T13:30:29;8.80;99.90
2022;DHT22;1015;49.756;6.994;2022-11-06T13:33:04;8.80;99.90
2022;DHT22;1015;49.756;6.994;2022-11-06T13:35:33;8.50;99.90
2022;DHT22;1015;49.756;6.994;2022-11-06T13:38:05;8.60;99.90
2022;DHT22;1015;49.756;6.994;2022-11-06T13:40:35;8.50;99.90
2022;DHT22;1015;49.756;6.994;2022-11-06T13:43:08;8.50;99.90
2022;DHT22;1015;49.756;6.994;2022-11-06T13:45:45;8.50;99.90
2022;DHT22;1015;49.756;6.994;2022-11-06T13:48:28;8.50;99.90
2022;DHT22;1015;49.756;6.994;2022-11-06T13:51:00;8.40;99.90
2022;DHT22;1015;49.756;6.994;2022-11-06T13:53:37;8.40;99.90
2022;DHT22;1015;49.756;6.994;2022-11-06T13:56:18;8.50;99.90
2022;DHT22;1015;49.756;6.994;2022-11-06T13:59:01;8.50;99.90
2022;DHT22;1015;49.756;6.994;2022-11-06T14:01:44;8.50;99.90
2022;DHT22;1015;49.756;6.994;2022-11-06T14:07:10;8.60;99.90
2022;DHT22;1015;49.756;6.994;2022-11-06T14:09:41;8.50;99.90
2022;DHT22;1015;49.756;6.994;2022-11-06T14:12:15;8.40;99.90
2022;DHT22;1015;49.756;6.994;2022-11-06T14:14:43;8.30;99.90
2022;DHT22;1015;49.756;6.994;2022-11-06T14:17:18;8.20;99.90
2022;DHT22;1015;49.756;6.994;2022-11-06T14:20:01;8.20;99.90
2022;DHT22;1015;49.756;6.994;2022-11-06T14:22:30;8.20;99.90
2022;DHT22;1015;49.756;6.994;2022-11-06T14:24:58;8.20;99.90
2022;DHT22;1015;49.756;6.994;2022-11-06T14:28:01;8.20;99.90
2022;DHT22;1015;49.756;6.994;2022-11-06T14:30:40;8.20;99.90
2022;DHT22;1015;49.756;6.994;2022-11-06T14:36:33;8.30;99.90
2022;DHT22;1015;49.756;6.994;2022-11-06T14:39:01;8.20;99.90
2022;DHT22;1015;49.756;6.994;2022-11-06T14:41:53;8.10;99.90
2022;DHT22;1015;49.756;6.994;2022-11-06T14:44:40;8.10;99.90
2022;DHT22;1015;49.756;6.994;2022-11-06T14:47:29;8.00;99.90
2022;DHT22;1015;49.756;6.994;2022-11-06T14:50:02;7.90;99.90
2022;DHT22;1015;49.756;6.994;2022-11-06T14:52:40;7.90;99.90
2022;DHT22;1015;49.756;6.994;2022-11-06T14:55:25;8.00;99.90
2022;DHT22;1015;49.756;6.994;2022-11-06T14:57:54;7.90;99.90
2022;DHT22;1015;49.756;6.994;2022-11-06T15:00:34;7.90;99.90
2022;DHT22;1015;49.756;6.994;2022-11-06T15:03:04;7.90;99.90
2022;DHT22;1015;49.756;6.994;2022-11-06T15:05:35;7.90;99.90
2022;DHT22;1015;49.756;6.994;2022-11-06T15:08:02;7.90;99.90
2022;DHT22;1015;49.756;6.994;2022-11-06T15:10:52;7.80;99.90
2022;DHT22;1015;49.756;6.994;2022-11-06T15:13:27;7.80;99.90
2022;DHT22;1015;49.756;6.994;2022-11-06T15:16:03;7.80;99.90
2022;DHT22;1015;49.756;6.994;2022-11-06T15:18:35;7.80;99.90
2022;DHT22;1015;49.756;6.994;2022-11-06T15:21:07;7.70;99.90
2022;DHT22;1015;49.756;6.994;2022-11-06T15:23:40;7.70;99.90
2022;DHT22;1015;49.756;6.994;2022-11-06T15:26:15;7.70;99.90
2022;DHT22;1015;49.756;6.994;2022-11-06T15:28:48;7.60;99.90
2022;DHT22;1015;49.756;6.994;2022-11-06T15:31:17;7.60;99.90
2022;DHT22;1015;49.756;6.994;2022-11-06T15:33:52;7.60;99.90
2022;DHT22;1015;49.756;6.994;2022-11-06T15:36:21;7.60;99.90
2022;DHT22;1015;49.756;6.994;2022-11-06T15:38:49;7.50;99.90
2022;DHT22;1015;49.756;6.994;2022-11-06T15:41:18;7.40;99.90
2022;DHT22;1015;49.756;6.994;2022-11-06T15:43:48;7.20;99.90
2022;DHT22;1015;49.756;6.994;2022-11-06T15:46:19;7.10;99.90
2022;DHT22;1015;49.756;6.994;2022-11-06T15:48:47;7.00;99.90
2022;DHT22;1015;49.756;6.994;2022-11-06T15:51:21;6.90;99.90
2022;DHT22;1015;49.756;6.994;2022-11-06T15:53:49;6.80;99.90
2022;DHT22;1015;49.756;6.994;2022-11-06T15:56:17;6.80;99.90
2022;DHT22;1015;49.756;6.994;2022-11-06T15:58:45;6.70;99.90
2022;DHT22;1015;49.756;6.994;2022-11-06T16:01:31;6.70;99.90
2022;DHT22;1015;49.756;6.994;2022-11-06T16:04:02;6.60;99.90
2022;DHT22;1015;49.756;6.994;2022-11-06T16:06:32;6.60;99.90
2022;DHT22;1015;49.756;6.994;2022-11-06T16:08:59;6.60;99.90
2022;DHT22;1015;49.756;6.994;2022-11-06T16:11:27;6.50;99.90
2022;DHT22;1015;49.756;6.994;2022-11-06T16:13:55;6.50;99.90
2022;DHT22;1015;49.756;6.994;2022-11-06T16:16:31;6.50;99.90
2022;DHT22;1015;49.756;6.994;2022-11-06T16:18:58;6.50;99.90
2022;DHT22;1015;49.756;6.994;2022-11-06T16:21:29;6.60;99.90
2022;DHT22;1015;49.756;6.994;2022-11-06T16:24:00;6.60;99.90
2022;DHT22;1015;49.756;6.994;2022-11-06T16:26:37;6.60;99.90
2022;DHT22;1015;49.756;6.994;2022-11-06T16:29:10;6.60;99.90
2022;DHT22;1015;49.756;6.994;2022-11-06T16:31:38;6.60;99.90
2022;DHT22;1015;49.756;6.994;2022-11-06T16:34:18;6.60;99.90
2022;DHT22;1015;49.756;6.994;2022-11-06T16:36:56;6.60;99.90
2022;DHT22;1015;49.756;6.994;2022-11-06T16:39:40;6.50;99.90
2022;DHT22;1015;49.756;6.994;2022-11-06T16:42:24;6.50;99.90
2022;DHT22;1015;49.756;6.994;2022-11-06T16:45:00;6.50;99.90
2022;DHT22;1015;49.756;6.994;2022-11-06T16:47:27;6.60;99.90
2022;DHT22;1015;49.756;6.994;2022-11-06T16:49:55;6.60;99.90
2022;DHT22;1015;49.756;6.994;2022-11-06T16:52:25;6.70;99.90
2022;DHT22;1015;49.756;6.994;2022-11-06T16:54:56;6.80;99.90